Time;durP1;ratioP1;P1;durP2;ratioP2;P2;SDS_P1;SDS_P2;PMS_P1;PMS_P2;Temp;Humidity;BMP_temperature;BMP_pressure;BME280_temperature;BME280_humidity;BME280_pressure;Samples;Min_cycle;Max_cycle;Signal;HPM_P1;HPM_P2
2021/12/08 00:01:30;;;;;;;10.70;4.07;;;;;;;;;;5012477;28;20121;-71
2021/12/08 00:03:56;;;;;;;11.90;4.68;;;;;;;;;;5012648;28;20077;-71
2021/12/08 00:06:22;;;;;;;10.48;4.53;;;;;;;;;;5012656;28;20112;-71
2021/12/08 00:09:02;;;;;;;8.80;4.25;;;;;;;;;;5012751;28;20554;-71
2021/12/08 00:14:14;;;;;;;10.00;4.47;;;3.10;99.90;;;;;;5012940;28;20153;-71
2021/12/08 00:16:40;;;;;;;6.20;3.65;;;;;;;;;;4996201;28;20049;-71
2021/12/08 00:19:06;;;;;;;8.23;4.07;;;;;;;;;;4996247;28;20050;-71
2021/12/08 00:21:32;;;;;;;12.95;4.40;;;3.60;99.90;;;;;;5012360;28;20486;-71
2021/12/08 00:23:57;;;;;;;7.65;4.03;;;3.50;99.90;;;;;;5012929;28;20050;-71
2021/12/08 00:26:23;;;;;;;14.05;4.53;;;;;;;;;;5012587;28;20471;-71
2021/12/08 00:28:49;;;;;;;9.18;4.10;;;;;;;;;;5012617;28;20042;-71
2021/12/08 00:31:16;;;;;;;10.77;4.60;;;;;;;;;;5012522;28;20508;-70
2021/12/08 00:33:41;;;;;;;9.02;4.15;;;3.00;99.90;;;;;;4975542;28;20503;-70
2021/12/08 00:36:13;;;;;;;11.95;5.10;;;5.00;99.90;;;;;;5010434;28;20042;-70
2021/12/08 00:38:39;;;;;;;11.60;5.03;;;;;;;;;;5012277;28;20080;-71
2021/12/08 00:41:05;;;;;;;9.15;4.35;;;4.00;99.90;;;;;;5012475;28;20125;-71
2021/12/08 00:43:31;;;;;;;13.45;4.50;;;;;;;;;;5012289;28;20110;-71
2021/12/08 00:45:57;;;;;;;10.20;4.82;;;3.40;99.90;;;;;;5012342;28;20052;-71
2021/12/08 00:48:23;;;;;;;10.88;5.15;;;;;;;;;;5011767;28;20103;-71
2021/12/08 00:50:50;;;;;;;7.78;5.00;;;3.80;99.90;;;;;;5012287;28;20402;-71
2021/12/08 00:53:16;;;;;;;12.20;5.18;;;;;;;;;;5012356;28;20456;-71
2021/12/08 00:55:42;;;;;;;9.10;5.00;;;;;;;;;;5012594;28;20084;-71
2021/12/08 00:58:08;;;;;;;12.07;4.80;;;;;;;;;;5011862;28;20069;-71
2021/12/08 01:00:38;;;;;;;12.68;5.05;;;3.90;99.90;;;;;;5012325;28;20044;-71
2021/12/08 01:03:05;;;;;;;9.85;5.20;;;;;;;;;;5011976;28;20085;-71
2021/12/08 01:05:34;;;;;;;12.27;5.72;;;;;;;;;;5013489;28;20375;-71
2021/12/08 01:08:01;;;;;;;9.73;5.35;;;;;;;;;;5011859;28;20045;-71
2021/12/08 01:10:28;;;;;;;7.65;5.25;;;4.00;99.90;;;;;;5012049;28;20057;-71
2021/12/08 01:12:56;;;;;;;12.75;5.72;;;3.90;99.90;;;;;;5012164;28;20048;-71
2021/12/08 01:15:25;;;;;;;16.42;5.55;;;3.70;99.90;;;;;;5012015;28;20491;-71
2021/12/08 01:17:52;;;;;;;11.07;6.43;;;;;;;;;;5014627;28;20041;-71
2021/12/08 01:20:18;;;;;;;11.48;6.07;;;3.80;99.90;;;;;;5016039;28;20106;-71
2021/12/08 01:22:44;;;;;;;7.70;4.90;;;;;;;;;;5017142;28;20038;-71
2021/12/08 01:25:10;;;;;;;10.77;4.80;;;;;;;;;;5015792;28;20152;-71
2021/12/08 01:27:36;;;;;;;9.02;5.57;;;;;;;;;;5015484;28;20497;-71
2021/12/08 01:30:05;;;;;;;12.60;5.20;;;3.60;99.90;;;;;;5015897;28;20053;-71
2021/12/08 01:32:31;;;;;;;11.10;5.40;;;4.30;99.90;;;;;;5015581;28;20472;-71
2021/12/08 01:34:58;;;;;;;13.80;5.68;;;;;;;;;;5016845;28;20184;-71
2021/12/08 01:37:24;;;;;;;11.88;5.88;;;;;;;;;;5015262;28;20516;-71
2021/12/08 01:39:50;;;;;;;10.13;5.43;;;;;;;;;;5015718;28;20033;-71
2021/12/08 01:42:24;;;;;;;15.05;5.55;;;;;;;;;;5015503;28;20053;-71
2021/12/08 01:47:35;;;;;;;10.70;6.20;;;;;;;;;;5015100;28;20052;-71
2021/12/08 01:50:00;;;;;;;13.13;5.47;;;3.60;99.90;;;;;;5015603;28;20568;-71
2021/12/08 01:52:26;;;;;;;11.90;5.53;;;3.80;99.90;;;;;;5015323;28;20124;-71
2021/12/08 01:54:53;;;;;;;12.10;5.50;;;;;;;;;;5015377;28;20125;-71
2021/12/08 01:57:19;;;;;;;13.88;5.90;;;;;;;;;;5015285;28;20498;-71
2021/12/08 01:59:45;;;;;;;11.73;6.22;;;;;;;;;;5015025;28;20050;-71
2021/12/08 02:02:10;;;;;;;10.05;5.30;;;4.10;99.90;;;;;;5015316;28;20489;-71
2021/12/08 02:04:36;;;;;;;10.63;5.82;;;;;;;;;;5015197;28;20041;-71
2021/12/08 02:07:02;;;;;;;13.68;6.68;;;4.30;99.90;;;;;;4998665;28;20069;-71
2021/12/08 02:09:29;;;;;;;11.20;5.95;;;;;;;;;;5014929;28;20046;-71
2021/12/08 02:11:56;;;;;;;11.77;6.43;;;;;;;;;;4998575;28;20041;-71
2021/12/08 02:14:22;;;;;;;10.13;6.05;;;3.80;99.90;;;;;;5014734;28;20502;-71
2021/12/08 02:16:51;;;;;;;14.40;6.30;;;3.90;99.90;;;;;;5014752;28;20129;-72
2021/12/08 02:19:18;;;;;;;10.70;6.18;;;;;;;;;;5014578;28;20045;-72
2021/12/08 02:21:44;;;;;;;12.40;6.75;;;4.10;99.90;;;;;;5014819;28;20052;-72
2021/12/08 02:24:13;;;;;;;14.70;6.53;;;4.00;99.90;;;;;;4998298;28;20045;-72
2021/12/08 02:26:42;;;;;;;14.25;7.00;;;3.90;99.90;;;;;;5014813;28;20121;-72
2021/12/08 02:29:13;;;;;;;11.25;6.43;;;4.10;99.90;;;;;;5013364;28;20041;-72
2021/12/08 02:31:48;;;;;;;10.23;6.65;;;;;;;;;;5015117;28;20046;-72
2021/12/08 02:48:00;;;;;;;10.25;6.90;;;;;;;;;;5014053;28;20046;-72
2021/12/08 02:50:32;;;;;;;15.50;7.68;;;3.70;99.90;;;;;;5013992;28;20045;-72
2021/12/08 02:53:00;;;;;;;11.60;7.47;;;4.20;99.90;;;;;;5010731;28;20052;-72
2021/12/08 02:55:29;;;;;;;14.70;7.93;;;;;;;;;;5013951;28;20073;-71
2021/12/08 02:57:57;;;;;;;11.00;7.47;;;4.40;99.90;;;;;;5013890;28;20046;-68
2021/12/08 03:00:26;;;;;;;13.68;7.82;;;4.00;99.90;;;;;;5013828;28;20401;-71
2021/12/08 03:02:57;;;;;;;11.52;7.93;;;;;;;;;;5015091;28;20077;-71
2021/12/08 03:05:23;;;;;;;12.90;7.57;;;;;;;;;;5013087;28;20052;-72
2021/12/08 03:07:50;;;;;;;11.35;7.63;;;;;;;;;;4996909;28;20045;-71
2021/12/08 03:10:19;;;;;;;13.15;8.13;;;;;;;;;;5012913;28;20494;-71
2021/12/08 03:12:45;;;;;;;14.13;8.88;;;;;;;;;;5014110;28;20081;-71
2021/12/08 03:15:12;;;;;;;11.15;8.18;;;4.40;99.90;;;;;;5013462;28;20050;-71
2021/12/08 03:17:39;;;;;;;12.38;8.23;;;;;;;;;;5013511;28;20108;-72
2021/12/08 03:20:14;;;;;;;12.93;8.57;;;4.20;99.90;;;;;;5013128;28;20091;-72
2021/12/08 03:22:47;;;;;;;15.00;8.70;;;4.30;99.90;;;;;;5013768;28;20042;-72
2021/12/08 03:25:17;;;;;;;13.77;9.25;;;4.30;99.90;;;;;;5013306;28;20406;-72
2021/12/08 03:27:51;;;;;;;15.50;8.38;;;;;;;;;;5013603;28;20432;-71
2021/12/08 03:30:33;;;;;;;12.55;8.80;;;;;;;;;;5013607;28;20080;-71
2021/12/08 03:32:59;;;;;;;12.68;9.43;;;;;;;;;;5013396;28;20053;-71
2021/12/08 03:35:25;;;;;;;14.75;8.65;;;;;;;;;;5013328;28;20493;-71
2021/12/08 03:37:51;;;;;;;15.95;9.65;;;;;;;;;;5013168;28;20042;-71
2021/12/08 03:40:20;;;;;;;15.73;9.30;;;4.30;99.90;;;;;;5012836;28;20053;-71
2021/12/08 03:42:49;;;;;;;13.13;8.93;;;4.40;99.90;;;;;;5013318;28;20049;-71
2021/12/08 03:45:30;;;;;;;14.35;9.80;;;4.50;99.90;;;;;;5013126;28;20510;-71
2021/12/08 03:48:02;;;;;;;14.05;10.35;;;4.40;99.90;;;;;;5013194;28;20052;-71
2021/12/08 03:50:34;;;;;;;17.73;10.05;;;4.40;99.90;;;;;;5013307;28;20048;-71
2021/12/08 03:53:00;;;;;;;13.65;9.32;;;;;;;;;;5013002;28;20080;-72
2021/12/08 03:55:26;;;;;;;17.95;10.35;;;;;;;;;;4996531;28;20050;-72
2021/12/08 03:57:52;;;;;;;13.57;9.88;;;;;;;;;;5012947;28;20034;-72
2021/12/08 04:00:21;;;;;;;10.70;9.23;;;4.50;99.90;;;;;;5014173;28;20437;-72
2021/12/08 04:02:48;;;;;;;20.17;9.65;;;;;;;;;;5014417;28;20052;-72
2021/12/08 04:05:19;;;;;;;19.67;10.30;;;4.60;99.90;;;;;;5013864;28;20042;-72
2021/12/08 04:07:47;;;;;;;15.10;10.35;;;4.60;99.90;;;;;;5013149;28;20383;-72
2021/12/08 04:10:19;;;;;;;15.13;10.35;;;4.50;99.90;;;;;;5012726;28;20076;-72
2021/12/08 04:12:52;;;;;;;16.10;9.63;;;5.00;99.90;;;;;;5012903;28;20081;-72
2021/12/08 04:15:20;;;;;;;14.10;10.13;;;4.70;99.90;;;;;;5013714;28;20034;-72
2021/12/08 04:17:48;;;;;;;15.52;10.30;;;;;;;;;;5012279;28;20084;-72
2021/12/08 04:20:31;;;;;;;16.83;11.77;;;4.70;99.90;;;;;;5012213;28;20054;-72
2021/12/08 04:22:59;;;;;;;14.43;10.55;;;4.00;99.90;;;;;;5012714;28;20038;-72
2021/12/08 04:25:32;;;;;;;19.02;10.43;;;4.70;99.90;;;;;;5012439;28;20160;-72
2021/12/08 04:28:00;;;;;;;19.10;10.90;;;4.70;99.90;;;;;;5013930;28;20045;-72
2021/12/08 04:30:35;;;;;;;16.38;11.15;;;4.60;99.90;;;;;;5012284;28;20032;-72
2021/12/08 04:33:01;;;;;;;17.13;10.63;;;;;;;;;;5012833;28;20077;-72
2021/12/08 04:35:28;;;;;;;15.88;9.93;;;4.70;99.90;;;;;;5012273;28;20046;-72
2021/12/08 04:37:58;;;;;;;15.82;10.68;;;4.60;99.90;;;;;;5012629;28;20433;-72
2021/12/08 04:40:38;;;;;;;22.20;11.25;;;4.60;99.90;;;;;;5012190;28;20044;-72
2021/12/08 04:43:18;;;;;;;23.27;11.00;;;4.30;99.90;;;;;;5012405;28;20072;-72
2021/12/08 04:46:01;;;;;;;17.75;10.85;;;4.70;99.90;;;;;;5012407;28;20050;-72
2021/12/08 04:51:32;;;;;;;19.48;10.82;;;4.80;99.90;;;;;;5011338;28;20052;-71
2021/12/08 05:02:27;;;;;;;15.82;11.35;;;;;;;;;;4999859;28;20048;-72
2021/12/08 05:05:10;;;;;;;19.73;11.88;;;5.40;99.90;;;;;;4997580;28;20046;-72
2021/12/08 05:07:59;;;;;;;14.23;10.98;;;;;;;;;;5012014;28;20100;-72
2021/12/08 05:10:32;;;;;;;20.13;10.68;;;4.90;99.90;;;;;;5011793;28;20045;-72
2021/12/08 05:12:59;;;;;;;25.88;11.25;;;;;;;;;;4992904;28;20042;-72
2021/12/08 05:15:25;;;;;;;17.85;10.65;;;;;;;;;;4993144;28;20074;-72
2021/12/08 05:18:04;;;;;;;17.52;10.60;;;4.90;99.90;;;;;;5012029;28;20508;-71
2021/12/08 05:20:56;;;;;;;18.05;11.02;;;4.90;99.90;;;;;;5011716;28;20065;-71
2021/12/08 05:23:28;;;;;;;17.90;10.65;;;;;;;;;;4992685;28;20089;-71
2021/12/08 05:25:54;;;;;;;20.50;10.65;;;4.90;99.90;;;;;;4999733;28;20493;-71
2021/12/08 05:28:24;;;;;;;16.95;10.50;;;4.90;99.90;;;;;;5011864;28;20042;-71
2021/12/08 05:31:22;;;;;;;17.02;10.07;;;4.80;99.90;;;;;;4995430;28;20041;-72
2021/12/08 05:33:49;;;;;;;18.08;10.60;;;4.70;99.90;;;;;;5004564;28;20422;-71
2021/12/08 05:36:16;;;;;;;15.65;10.13;;;5.00;99.90;;;;;;5012033;28;20108;-72
2021/12/08 05:38:44;;;;;;;16.77;10.55;;;4.90;99.90;;;;;;5012026;28;20486;-72
2021/12/08 05:41:20;;;;;;;14.23;9.68;;;5.00;99.90;;;;;;5013037;28;20073;-71
2021/12/08 05:43:47;;;;;;;12.88;9.55;;;4.70;99.90;;;;;;5013298;28;20052;-71
2021/12/08 05:46:15;;;;;;;18.20;9.98;;;4.80;99.90;;;;;;4993532;28;20450;-71
2021/12/08 05:48:42;;;;;;;17.42;9.32;;;5.00;99.90;;;;;;5011930;28;20081;-72
2021/12/08 05:51:15;;;;;;;12.10;9.32;;;4.80;99.90;;;;;;5011475;28;20046;-72
2021/12/08 05:53:43;;;;;;;16.13;8.85;;;;;;;;;;5012118;28;20046;-72
2021/12/08 05:56:10;;;;;;;11.63;8.15;;;4.90;99.90;;;;;;5011418;28;20038;-72
2021/12/08 05:58:38;;;;;;;18.70;8.80;;;4.90;99.90;;;;;;5011812;28;20080;-71
2021/12/08 06:01:10;;;;;;;16.23;9.15;;;5.30;99.90;;;;;;4995557;28;20042;-72
2021/12/08 06:03:37;;;;;;;16.65;9.88;;;;;;;;;;5013615;28;20073;-72
2021/12/08 06:06:04;;;;;;;17.92;9.20;;;4.90;99.90;;;;;;5015461;28;20045;-72
2021/12/08 06:08:30;;;;;;;16.20;8.90;;;;;;;;;;5015116;28;20121;-72
2021/12/08 06:10:59;;;;;;;13.93;8.27;;;4.90;99.90;;;;;;5014873;28;20030;-72
2021/12/08 06:13:24;;;;;;;15.18;8.85;;;5.40;99.90;;;;;;5014513;28;20049;-72
2021/12/08 06:15:50;;;;;;;16.27;9.50;;;;;;;;;;5014966;28;20034;-72
2021/12/08 06:18:21;;;;;;;14.60;8.30;;;5.00;99.90;;;;;;5014700;28;20064;-72
2021/12/08 06:20:48;;;;;;;16.98;8.57;;;4.90;99.90;;;;;;5014894;28;20053;-72
2021/12/08 06:23:14;;;;;;;13.48;8.88;;;;;;;;;;5014992;28;20382;-72
2021/12/08 06:25:41;;;;;;;20.70;9.50;;;4.50;99.90;;;;;;5015159;28;20391;-72
2021/12/08 06:28:09;;;;;;;16.95;9.45;;;4.90;99.90;;;;;;5014555;28;20038;-72
2021/12/08 06:30:37;;;;;;;19.02;9.00;;;5.10;99.90;;;;;;5014937;28;20046;-72
2021/12/08 06:33:04;;;;;;;14.82;8.25;;;4.80;99.90;;;;;;5014476;28;20486;-72
2021/12/08 06:35:35;;;;;;;20.25;8.63;;;5.10;99.90;;;;;;5014464;28;20057;-72
2021/12/08 06:38:02;;;;;;;18.35;8.70;;;;;;;;;;5014080;28;20134;-72
2021/12/08 06:40:53;;;;;;;16.13;8.75;;;5.10;99.90;;;;;;5014608;28;20074;-72
2021/12/08 06:43:23;;;;;;;17.58;8.23;;;4.90;99.90;;;;;;5014210;28;20049;-72
2021/12/08 06:45:54;;;;;;;22.00;7.95;;;4.90;99.90;;;;;;5014385;28;20053;-73
2021/12/08 06:48:24;;;;;;;18.63;8.60;;;4.90;99.90;;;;;;5014052;28;20108;-72
2021/12/08 06:50:56;;;;;;;20.65;9.25;;;4.90;99.90;;;;;;4997712;28;20081;-72
2021/12/08 06:53:23;;;;;;;;;;;4.90;99.90;;;;;;5014386;28;20050;-72
2021/12/08 06:56:08;;;;;;;20.45;7.28;;;5.00;99.90;;;;;;5014528;28;19944;-72
2021/12/08 06:58:37;;;;;;;18.67;9.60;;;5.00;99.90;;;;;;5013957;28;20088;-72
2021/12/08 07:01:47;;;;;;;18.20;7.78;;;5.00;99.90;;;;;;5013913;28;20048;-72
2021/12/08 07:07:01;;;;;;;27.67;8.98;;;5.00;99.90;;;;;;5013968;28;20057;-72
2021/12/08 07:09:32;;;;;;;15.23;7.53;;;5.00;99.90;;;;;;5013523;28;20109;-72
2021/12/08 07:12:02;;;;;;;21.17;8.13;;;5.50;99.90;;;;;;5013873;28;20030;-71
2021/12/08 07:14:30;;;;;;;15.20;6.75;;;5.10;99.90;;;;;;5012475;28;20034;-71
2021/12/08 07:17:02;;;;;;;19.08;7.97;;;5.20;99.90;;;;;;5013767;28;20042;-72
2021/12/08 07:19:43;;;;;;;15.20;6.50;;;5.20;99.90;;;;;;5013257;28;20054;-72
2021/12/08 07:22:17;;;;;;;13.85;6.35;;;4.90;99.90;;;;;;5013962;28;20041;-72
2021/12/08 07:24:46;;;;;;;28.83;8.15;;;5.20;99.90;;;;;;4980599;28;20457;-72
2021/12/08 07:27:17;;;;;;;19.90;6.45;;;5.10;99.90;;;;;;5013895;28;20053;-73
2021/12/08 07:29:45;;;;;;;18.70;7.30;;;5.10;99.90;;;;;;5011026;28;20490;-73
2021/12/08 07:32:22;;;;;;;22.08;6.70;;;4.50;99.90;;;;;;5013624;28;20125;-72
2021/12/08 07:34:51;;;;;;;19.13;7.60;;;5.00;99.90;;;;;;5014448;28;20045;-72
2021/12/08 07:37:22;;;;;;;18.15;6.82;;;5.10;99.90;;;;;;5014950;28;20463;-76
2021/12/08 07:40:15;;;;;;;17.52;6.30;;;5.10;99.90;;;;;;5013059;28;20041;-72
2021/12/08 07:42:48;;;;;;;19.65;7.40;;;5.10;99.90;;;;;;5005323;28;20141;-73
2021/12/08 07:45:30;;;;;;;17.77;6.22;;;5.20;99.90;;;;;;5000355;28;20045;-73
2021/12/08 07:47:56;;;;;;;14.68;6.93;;;;;;;;;;5013436;28;20409;-73
2021/12/08 07:50:28;;;;;;;21.38;6.75;;;5.00;99.90;;;;;;5013241;28;20046;-73
2021/12/08 07:52:55;;;;;;;11.20;6.50;;;5.20;99.90;;;;;;5013418;28;20124;-73
2021/12/08 07:55:33;;;;;;;13.77;6.43;;;5.20;99.90;;;;;;5012947;28;20041;-74
2021/12/08 07:57:59;;;;;;;17.45;6.35;;;5.00;99.90;;;;;;5013139;28;20395;-73
2021/12/08 08:00:57;;;;;;;13.32;7.20;;;5.10;99.90;;;;;;4996476;28;20046;-73
2021/12/08 08:03:24;;;;;;;22.13;6.82;;;5.10;99.90;;;;;;5012276;28;20054;-73
2021/12/08 08:05:52;;;;;;;24.27;6.28;;;5.30;99.90;;;;;;5012780;28;20042;-72
2021/12/08 08:08:20;;;;;;;13.95;5.80;;;5.00;99.90;;;;;;4996108;28;20042;-72
2021/12/08 08:11:02;;;;;;;19.75;5.30;;;4.90;99.90;;;;;;5014161;28;20042;-73
2021/12/08 08:13:30;;;;;;;15.15;5.40;;;5.30;99.90;;;;;;5012461;28;20061;-73
2021/12/08 08:16:05;;;;;;;11.13;5.78;;;5.40;99.90;;;;;;5012600;28;20041;-73
2021/12/08 08:18:33;;;;;;;15.02;5.28;;;5.20;99.90;;;;;;5012596;28;20042;-73
2021/12/08 08:21:05;;;;;;;17.60;5.68;;;5.30;99.90;;;;;;5013874;28;20057;-73
2021/12/08 08:23:31;;;;;;;9.32;5.13;;;;;;;;;;5013412;28;20387;-73
2021/12/08 08:25:58;;;;;;;16.25;4.35;;;5.30;99.90;;;;;;5012181;28;20096;-73
2021/12/08 08:28:25;;;;;;;18.42;5.05;;;;;;;;;;5012188;28;20103;-73
2021/12/08 08:30:56;;;;;;;13.25;5.20;;;5.20;99.90;;;;;;5012758;28;20502;-73
2021/12/08 08:33:23;;;;;;;10.57;4.45;;;5.10;99.90;;;;;;5013124;28;20372;-73
2021/12/08 08:35:53;;;;;;;13.75;5.43;;;5.10;99.90;;;;;;5012534;28;20131;-73
2021/12/08 08:38:23;;;;;;;16.95;4.70;;;5.10;99.90;;;;;;5012228;28;20089;-73
2021/12/08 08:41:01;;;;;;;13.18;4.68;;;4.90;99.90;;;;;;5011871;28;20045;-73
2021/12/08 08:43:27;;;;;;;12.18;4.15;;;;;;;;;;5011905;28;20046;-73
2021/12/08 08:46:00;;;;;;;9.45;4.20;;;5.20;99.90;;;;;;5011553;28;20391;-73
2021/12/08 08:48:29;;;;;;;11.77;3.55;;;4.80;99.90;;;;;;5009024;28;20049;-73
2021/12/08 08:51:22;;;;;;;11.05;3.78;;;5.00;99.90;;;;;;5011902;28;20042;-73
2021/12/08 08:53:50;;;;;;;14.18;4.10;;;;;;;;;;5012133;28;20061;-73
2021/12/08 08:56:24;;;;;;;10.95;3.92;;;4.90;99.90;;;;;;5012439;28;20061;-73
2021/12/08 08:58:56;;;;;;;11.50;3.67;;;4.90;99.90;;;;;;5012250;28;20038;-73
2021/12/08 09:01:36;;;;;;;16.75;3.90;;;4.70;99.90;;;;;;5011983;28;20038;-73
2021/12/08 09:04:24;;;;;;;18.23;5.03;;;5.00;99.90;;;;;;4998662;28;20046;-73
2021/12/08 09:06:53;;;;;;;12.85;5.22;;;4.60;99.90;;;;;;5012488;28;20100;-73
2021/12/08 09:09:26;;;;;;;13.18;4.15;;;4.70;99.90;;;;;;5037941;28;20049;-73
2021/12/08 09:11:58;;;;;;;13.18;3.33;;;;;;;;;;5012064;28;20053;-73
2021/12/08 09:14:30;;;;;;;10.98;3.33;;;4.90;99.90;;;;;;5010895;28;20517;-69
2021/12/08 09:17:16;;;;;;;10.57;4.05;;;;;;;;;;5011495;28;20049;-69
2021/12/08 09:19:49;;;;;;;8.55;3.70;;;5.10;99.90;;;;;;5010550;28;20445;-69
2021/12/08 09:22:42;;;;;;;17.17;3.88;;;5.20;99.90;;;;;;5021630;28;20470;-69
2021/12/08 09:25:12;;;;;;;11.20;4.07;;;5.00;99.90;;;;;;5009720;28;20046;-69
2021/12/08 09:27:43;;;;;;;15.75;4.22;;;5.20;99.90;;;;;;5010903;28;20502;-69
2021/12/08 09:30:23;;;;;;;12.90;3.63;;;5.30;99.90;;;;;;5010783;28;20049;-69
2021/12/08 09:33:01;;;;;;;17.95;4.32;;;5.10;99.90;;;;;;4993353;28;20387;-69
2021/12/08 09:35:37;;;;;;;8.73;3.40;;;;;;;;;;5006478;28;20046;-70
2021/12/08 09:38:36;;;;;;;14.13;3.08;;;5.10;99.90;;;;;;5013011;28;20045;-69
2021/12/08 09:41:26;;;;;;;16.58;3.97;;;5.30;99.90;;;;;;5004135;28;20099;-70
2021/12/08 09:43:56;;;;;;;17.42;4.20;;;5.40;99.90;;;;;;5012501;28;20042;-69
2021/12/08 09:46:35;;;;;;;19.52;3.60;;;5.40;99.90;;;;;;5014363;28;20121;-69
2021/12/08 09:49:03;;;;;;;13.88;3.65;;;6.00;99.90;;;;;;5012885;28;20049;-69
2021/12/08 09:51:30;;;;;;;11.80;3.20;;;5.50;99.90;;;;;;5009074;28;20072;-69
2021/12/08 09:53:56;;;;;;;13.23;3.67;;;;;;;;;;5014942;28;20104;-72
2021/12/08 09:56:24;;;;;;;18.15;3.78;;;5.50;99.90;;;;;;5015494;28;20497;-69
2021/12/08 09:58:50;;;;;;;9.18;3.95;;;;;;;;;;4995990;28;20090;-69
2021/12/08 10:01:20;;;;;;;12.93;3.63;;;5.60;99.90;;;;;;5014304;28;20034;-69
2021/12/08 10:03:48;;;;;;;13.32;3.55;;;5.60;99.90;;;;;;5014302;28;20048;-69
2021/12/08 10:06:16;;;;;;;12.98;4.38;;;5.50;99.90;;;;;;5013857;28;20233;-69
2021/12/08 10:08:43;;;;;;;13.52;3.92;;;5.60;99.90;;;;;;5014144;28;20175;-69
2021/12/08 10:11:10;;;;;;;12.70;4.35;;;5.70;99.90;;;;;;4997625;28;20133;-69
2021/12/08 10:13:36;;;;;;;14.60;3.80;;;;;;;;;;5011350;28;20042;-70
2021/12/08 10:16:02;;;;;;;13.00;3.80;;;6.00;99.90;;;;;;5013902;28;20045;-69
2021/12/08 10:18:29;;;;;;;12.40;3.53;;;;;;;;;;5013902;28;20041;-69
2021/12/08 10:20:55;;;;;;;21.05;5.00;;;;;;;;;;5013618;28;20061;-70
2021/12/08 10:23:38;;;;;;;15.77;3.95;;;;;;;;;;5027585;28;20038;-70
2021/12/08 10:26:08;;;;;;;18.77;4.43;;;;;;;;;;5012563;28;20038;-69
2021/12/08 10:28:44;;;;;;;13.25;4.15;;;5.90;99.90;;;;;;5013776;28;20045;-69
2021/12/08 10:31:13;;;;;;;14.55;3.88;;;;;;;;;;5012789;28;20034;-70
2021/12/08 10:36:57;;;;;;;19.00;4.55;;;;;;;;;;5013599;28;20050;-70
2021/12/08 10:38:58;;;;;;;11.90;3.13;;;;;;;;;;5006586;28;20490;-69
2021/12/08 10:41:24;;;;;;;11.98;3.28;;;;;;;;;;5013293;28;20037;-69
2021/12/08 10:44:00;;;;;;;20.90;4.25;;;5.90;99.90;;;;;;5013382;28;20111;-69
2021/12/08 10:46:34;;;;;;;14.00;3.45;;;5.80;99.90;;;;;;5013417;28;20149;-69
2021/12/08 10:54:31;;;;;;;10.98;3.50;;;6.10;99.90;;;;;;5013076;28;20350;-70
2021/12/08 10:56:59;;;;;;;11.50;3.65;;;6.30;99.90;;;;;;5013146;28;20116;-69
2021/12/08 10:59:56;;;;;;;23.25;3.67;;;6.20;99.90;;;;;;5012977;28;20036;-70
2021/12/08 11:02:38;;;;;;;14.27;3.67;;;6.10;99.90;;;;;;5011995;28;20049;-70
2021/12/08 11:05:24;;;;;;;7.10;3.50;;;6.00;99.90;;;;;;5013969;28;20125;-70
2021/12/08 11:08:17;;;;;;;12.73;4.30;;;6.30;99.90;;;;;;5015236;28;20414;-70
2021/12/08 11:11:04;;;;;;;15.15;3.72;;;6.00;99.90;;;;;;5013906;28;20046;-69
2021/12/08 11:13:36;;;;;;;34.40;4.65;;;;;;;;;;5010774;28;20078;-70
2021/12/08 11:16:07;;;;;;;32.88;4.28;;;;;;;;;;4993910;28;20047;-70
2021/12/08 11:18:38;;;;;;;28.75;4.28;;;6.10;99.90;;;;;;4994100;28;20042;-70
2021/12/08 11:21:07;;;;;;;18.98;4.00;;;6.10;99.90;;;;;;4994638;28;20082;-70
2021/12/08 11:23:44;;;;;;;19.92;4.57;;;6.00;99.90;;;;;;5010254;28;20034;-70
2021/12/08 11:26:16;;;;;;;35.38;4.05;;;;;;;;;;5013756;28;20377;-70
2021/12/08 11:28:42;;;;;;;15.20;3.90;;;;;;;;;;5010751;28;20498;-70
2021/12/08 11:31:12;;;;;;;11.55;3.92;;;6.20;99.90;;;;;;5012524;28;20433;-71
2021/12/08 11:33:43;;;;;;;14.77;4.18;;;6.90;99.90;;;;;;5012269;28;20061;-70
2021/12/08 11:36:19;;;;;;;18.60;4.68;;;6.40;99.90;;;;;;5012360;28;20042;-70
2021/12/08 11:38:48;;;;;;;12.98;4.05;;;6.40;99.90;;;;;;5012169;28;20486;-70
2021/12/08 11:41:36;;;;;;;11.55;3.83;;;6.20;99.90;;;;;;4995926;28;20041;-70
2021/12/08 11:44:06;;;;;;;20.17;3.80;;;;;;;;;;5011714;28;20068;-70
2021/12/08 11:46:36;;;;;;;10.35;4.10;;;6.30;99.90;;;;;;5011572;28;20041;-70
2021/12/08 11:49:04;;;;;;;19.05;4.32;;;6.40;99.90;;;;;;5011454;28;20125;-70
2021/12/08 11:51:33;;;;;;;10.32;4.20;;;6.10;99.90;;;;;;5012077;28;20482;-70
2021/12/08 11:53:59;;;;;;;13.00;4.97;;;6.70;99.90;;;;;;5013267;28;20049;-70
2021/12/08 11:56:42;;;;;;;20.98;4.40;;;6.30;99.90;;;;;;5012222;28;20026;-70
2021/12/08 11:59:10;;;;;;;21.58;5.65;;;6.20;99.90;;;;;;5012095;28;20043;-70
2021/12/08 12:01:37;;;;;;;10.38;4.28;;;6.30;99.90;;;;;;5011959;28;20073;-70
2021/12/08 12:04:05;;;;;;;12.15;5.28;;;5.70;99.90;;;;;;5011584;28;20498;-70
2021/12/08 12:06:33;;;;;;;7.68;3.97;;;6.10;99.90;;;;;;5011989;28;20465;-71
2021/12/08 12:08:59;;;;;;;11.93;4.93;;;;;;;;;;4979553;28;20160;-71
2021/12/08 12:11:27;;;;;;;10.65;4.50;;;6.20;99.90;;;;;;5011699;28;20049;-71
2021/12/08 12:13:55;;;;;;;14.77;4.35;;;6.20;99.90;;;;;;4995365;28;20052;-71
2021/12/08 12:16:21;;;;;;;15.30;4.50;;;;;;;;;;5011417;28;20080;-71
2021/12/08 12:18:47;;;;;;;10.60;4.65;;;;;;;;;;5011483;28;20157;-71
2021/12/08 12:21:22;;;;;;;11.40;4.55;;;6.20;99.90;;;;;;5011764;28;20042;-71
2021/12/08 12:23:54;;;;;;;11.65;4.65;;;;;;;;;;5009832;28;20040;-71
2021/12/08 12:26:25;;;;;;;8.90;4.50;;;6.10;99.90;;;;;;4994974;28;20081;-71
2021/12/08 12:29:16;;;;;;;10.23;5.07;;;6.20;99.90;;;;;;5009620;28;20033;-71
2021/12/08 12:32:07;;;;;;;9.25;4.30;;;6.30;99.90;;;;;;5011720;28;20389;-71
2021/12/08 12:34:37;;;;;;;8.32;4.70;;;6.30;99.90;;;;;;5011100;28;20046;-72
2021/12/08 12:37:24;;;;;;;10.63;5.22;;;6.20;99.90;;;;;;5010532;28;20120;-71
2021/12/08 12:39:52;;;;;;;9.48;4.70;;;;;;;;;;5001069;28;20045;-71
2021/12/08 12:42:19;;;;;;;10.60;4.80;;;6.70;99.90;;;;;;5010894;28;20113;-71
2021/12/08 12:44:57;;;;;;;12.18;4.70;;;6.00;99.90;;;;;;5011433;28;20078;-72
2021/12/08 12:47:26;;;;;;;17.85;5.10;;;;;;;;;;5011177;28;20121;-71
2021/12/08 12:50:08;;;;;;;15.35;5.20;;;6.30;99.90;;;;;;5011584;28;20038;-71
2021/12/08 12:52:38;;;;;;;15.63;4.85;;;6.00;99.90;;;;;;5010942;28;20040;-71
2021/12/08 12:55:14;;;;;;;16.90;6.68;;;6.20;99.90;;;;;;4994886;28;20424;-71
2021/12/08 12:58:05;;;;;;;11.93;4.22;;;6.20;99.90;;;;;;5009546;28;20041;-71
2021/12/08 13:00:34;;;;;;;15.00;4.43;;;6.10;99.90;;;;;;4994835;28;20142;-71
2021/12/08 13:03:01;;;;;;;11.55;5.07;;;5.70;99.90;;;;;;5011311;28;20040;-71
2021/12/08 13:05:45;;;;;;;11.98;4.35;;;6.50;99.90;;;;;;5011236;28;20038;-72
2021/12/08 13:08:11;;;;;;;25.13;5.00;;;;;;;;;;5010129;28;20042;-71
2021/12/08 13:10:39;;;;;;;47.67;7.40;;;;;;;;;;4994790;28;20046;-71
2021/12/08 13:13:24;;;;;;;29.73;5.32;;;;;;;;;;5012685;28;20402;-71
2021/12/08 13:15:49;;;;;;;18.30;5.07;;;7.50;99.90;;;;;;5015051;28;20042;-71
2021/12/08 13:18:17;;;;;;;11.25;4.32;;;6.90;99.90;;;;;;5016144;28;20096;-71
2021/12/08 13:20:54;;;;;;;14.13;5.47;;;6.50;99.90;;;;;;5012662;28;20408;-71
2021/12/08 13:23:22;;;;;;;33.20;4.93;;;;;;;;;;4996906;28;20038;-71
2021/12/08 13:26:11;;;;;;;15.50;4.38;;;7.30;99.90;;;;;;5012965;28;20053;-70
2021/12/08 13:28:43;;;;;;;19.80;4.05;;;;;;;;;;4998723;28;20371;-69
2021/12/08 13:31:25;;;;;;;;;;;7.00;99.90;;;;;;5015083;28;20049;-69
2021/12/08 13:34:04;;;;;;;14.10;3.92;;;7.10;99.90;;;;;;5014436;28;19976;-69
2021/12/08 13:36:35;;;;;;;13.38;3.35;;;7.10;99.90;;;;;;5012892;28;20534;-71
2021/12/08 13:39:04;;;;;;;9.02;3.03;;;;;;;;;;5014700;28;20050;-71
2021/12/08 13:41:39;;;;;;;18.52;3.95;;;7.00;99.90;;;;;;5013936;28;20045;-71
2021/12/08 13:44:35;;;;;;;20.48;4.82;;;7.00;99.90;;;;;;5014274;28;20046;-71
2021/12/08 13:47:23;;;;;;;13.18;3.20;;;7.00;99.90;;;;;;5012892;28;20061;-71
2021/12/08 13:50:03;;;;;;;9.43;3.28;;;7.10;99.90;;;;;;5013905;28;20050;-71
2021/12/08 13:52:31;;;;;;;9.52;3.80;;;7.30;99.90;;;;;;5014488;28;20441;-73
2021/12/08 13:54:58;;;;;;;11.55;3.60;;;;;;;;;;5013965;28;20034;-71
2021/12/08 13:57:32;;;;;;;10.93;3.15;;;7.40;99.90;;;;;;5014441;28;20168;-69
2021/12/08 14:00:16;;;;;;;10.15;3.75;;;7.40;99.90;;;;;;5014227;28;20045;-69
2021/12/08 14:02:48;;;;;;;15.00;3.28;;;6.80;99.90;;;;;;5013994;28;20042;-72
2021/12/08 14:05:47;;;;;;;30.65;4.43;;;;;;;;;;5012712;28;20045;-71
2021/12/08 14:08:30;;;;;;;37.92;5.50;;;7.50;99.90;;;;;;4981507;28;20056;-71
2021/12/08 14:11:04;;;;;;;30.58;5.32;;;7.30;99.90;;;;;;5014271;28;20069;-73
2021/12/08 14:13:32;;;;;;;26.77;4.70;;;7.40;99.90;;;;;;5013949;28;20100;-73
2021/12/08 14:15:58;;;;;;;41.15;5.40;;;;;;;;;;5011411;28;20556;-73
2021/12/08 14:18:30;;;;;;;40.33;5.85;;;7.20;99.90;;;;;;5013900;28;20034;-73
2021/12/08 14:21:09;;;;;;;27.42;4.70;;;7.60;99.90;;;;;;4997027;28;20116;-73
2021/12/08 14:23:41;;;;;;;32.53;5.10;;;7.00;99.90;;;;;;5028153;28;20050;-73